METAR Data
IDs: Format: Raw Decoded Include TAF

Data at: 1350 UTC 26 Feb 2021

UUEE 261330Z 27009MPS 9999 -SHRA BKN028CB 05/02 Q1000 R24L/520245 R24C/520236 NOSIG